Sundown, TX (79372)

9:36 PM CDT on June 01, 2015 (GMT -0500)
BJC Weather Station #1 Ropesville, TX | | Change Station
CLOSE
Current Station
Personal Weather Station
Location: Ropesville, TX
Elevation: 3366 ft
Nearby Weather Stations

Elev 3366 ft 33.42 °N, 102.15 °W | Updated 10 minutes ago

Partly Cloudy
Partly Cloudy
75.9 °F
Feels Like 78 °F
N
4.7
Wind Variable Wind from South

Today
High -- | Low -- °F
--% Chance of Precip.
Yesterday
High -- | Low -- °F
Precip. -- in
6:41 AM 8:54 PM
Full, 100% visible
Pressure 29.88 in
Visibility 10.0 miles
Clouds Few 5000 ft
Mostly Cloudy 25000 ft
Heat Index 78 °F
Dew Point 58 °F
Humidity 53%
Rainfall 0.00 in
Snow Depth Not available.
UV 0 out of 12
Pollen 5.10 out of 12
Air Quality Not available.
Flu Activity Local Activity
METAR KLBB 020153Z COR 15014KT 10SM FEW050 BKN250 24/16 A3001 RMK AO2 SLP117 OCNL LTGICCG DSNT W-NW CB DSNT W-NW MOV SE T02440156

More Conditions Fewer Conditions

Pressure 29.88 in
Visibility 10.0 miles
Clouds Few 5000 ft
Mostly Cloudy 25000 ft
Heat Index 78 °F
Dew Point 58 °F
Humidity 53%
Rainfall 0.00 in
Snow Depth Not available.
UV 0 out of 12
Pollen 5.10 out of 12
Air Quality Not available.
Flu Activity Local Activity
METAR KLBB 020153Z COR 15014KT 10SM FEW050 BKN250 24/16 A3001 RMK AO2 SLP117 OCNL LTGICCG DSNT W-NW CB DSNT W-NW MOV SE T02440156

More Conditions Fewer Conditions

Nowcast | as of 9:33 PM CDT on June 1, 2015

At 930 PM...radar showed a broken line of thunderstorms extending from Summerfield to Muleshoe to Maple...with an outflow boundary several miles out ahead of the storms. The gust front and thunderstorms were moving southeast around 25 mph. Wind gusts of 30 to 40 mph will be common behind the gust front. In addition to the wind...the strongest storms will be capable of producing brief heavy rain...small hail and cloud to ground lightning. This activity will affect locations in and around Dimmitt...Lazbuddie...Earth... Muleshoe and Sudan through 1030 PM.

×

10-Day Weather Forecast

Almanac

Astronomy

Jun. 01, 2015 Rise Set
Actual Time
Civil Twilight
Nautical Twilight
Astronomical Twilight
Moon
Length of Visible Light
Length of Day
Tomorrow will be .
, % of the Moon is Illuminated

Today's Extremes

State Highs State Lows

Community

WunderPhotos

Upload Photos

1,825,858 photos uploaded!

WunderBlogs® & News

Nearby

Air Quality

  Air Quality AQ Index Pollutant
Not available.

Snow Depth

Station Depth Elevation

Earthquake Activity

City Distance Mag. Time & Date
Minimum magnitude displayed is 2.5.

Coastal Water Temperatures

Place Temperature

Stations

Nearby Weather Stations

Station Location Temp. Windchill Dew Point Humidity Wind Precip. Elev Updated Type